Latest Weather Observations for kunanyi / Mount Wellington

IDT60801

Issued at 9:31 pm EST Friday 1 July 2016 (issued every 30 minutes, with the page automatically refreshed every 10 minutes)

About weather observations | Map of weather stations | Latest weather observations for TAS | Other Formats
Station Details ID: 094087 Name: KUNANYI (MOUNT WELLINGTON PINNACLE) Lat: -42.90 Lon: 147.24 Height: 1260.47 m
Data from the previous 72 hours. | See also: Recent months at kunanyi / Mount Wellington
Date/Time
EST
Temp
°C
App
Temp
°C
Dew
Point
°C
Rel
Hum
%
Delta-T
°C
Wind Press
QNH
hPa
Press
MSL
hPa
Rain since
9am
mm
Dir  Spd
km/h
Gust
km/h
Spd
kts
Gust
kts
01/09:30pm 2.3 -9.7 1.7 96 0.3 W 54 70 29 38 - - 0.0
01/09:21pm 2.5 -9.1 1.6 94 0.4 W 52 72 28 39 - - 0.0
01/09:00pm 2.8 -8.2 0.7 86 0.9 W 48 65 26 35 - - 0.0
01/08:46pm 3.1 -8.6 1.0 86 0.9 W 52 72 28 39 - - 0.0
01/08:30pm 2.5 -9.9 1.6 94 0.4 W 56 72 30 39 - - 0.0
01/08:08pm 2.9 -8.3 1.6 91 0.5 W 50 74 27 40 - - 0.0
01/08:00pm 3.2 -8.8 1.4 88 0.8 W 54 70 29 38 - - 0.0
01/07:36pm 2.8 -9.3 1.2 89 0.7 W 54 74 29 40 - - 0.0
01/07:30pm 2.7 -9.7 1.4 91 0.5 W 56 70 30 38 - - 0.0
01/07:00pm 2.3 -10.1 1.4 94 0.4 WSW 56 70 30 38 - - 0.0
01/06:30pm 2.0 -11.4 1.4 96 0.2 WSW 61 78 33 42 - - 0.0
01/06:01pm 1.8 -12.7 1.4 97 0.2 WSW 67 87 36 47 - - 0.0
01/06:00pm 1.7 -12.4 1.3 97 0.2 WSW 65 80 35 43 - - 0.0
01/05:30pm 1.5 -11.9 1.1 97 0.2 WSW 61 76 33 41 - - 0.0
01/05:00pm 1.3 -11.3 0.4 94 0.4 WSW 56 78 30 42 - - 0.0
01/04:40pm 1.3 -11.4 0.6 95 0.3 WSW 57 76 31 41 - - 0.0
01/04:30pm 1.3 -12.5 0.7 96 0.2 WSW 63 76 34 41 - - 0.0
01/04:20pm 1.3 -12.1 0.9 97 0.2 WSW 61 80 33 43 - - 0.0
01/04:00pm 1.3 -12.2 0.6 95 0.3 WSW 61 78 33 42 - - 0.0
01/03:31pm 1.5 -10.3 0.3 92 0.5 WSW 52 70 28 38 - - 0.0
01/03:30pm 1.5 -9.9 0.3 92 0.5 WSW 50 67 27 36 - - 0.0
01/03:00pm 1.3 -8.7 0.7 96 0.2 W 43 61 23 33 - - 0.0
01/02:30pm 1.1 -11.1 0.5 96 0.2 WSW 54 72 29 39 - - 0.0
01/02:22pm 1.1 -10.3 0.4 95 0.3 WSW 50 72 27 39 - - 0.0
01/02:00pm 1.2 -10.3 0.0 92 0.5 W 50 67 27 36 - - 0.0
01/01:30pm 1.5 -8.8 0.0 90 0.6 W 44 72 24 39 - - 0.0
01/01:17pm 1.4 -8.0 0.2 92 0.5 W 39 59 21 32 - - 0.0
01/01:00pm 1.2 -8.2 0.0 92 0.5 W 39 54 21 29 - - 0.0
01/12:30pm 0.9 -7.3 -0.7 89 0.6 W 32 56 17 30 - - 0.0
01/12:23pm 1.3 -6.1 -0.8 86 0.8 WSW 28 56 15 30 - - 0.0
01/12:00pm 1.7 -6.3 0.5 92 0.5 W 32 44 17 24 - - 0.0
01/11:30am 1.5 -6.6 0.8 95 0.3 WSW 33 50 18 27 - - 0.0
01/11:05am 1.0 -8.7 0.6 97 0.2 WSW 41 61 22 33 - - 0.0
01/11:00am 1.0 -8.3 0.6 97 0.2 WSW 39 56 21 30 - - 0.0
01/10:30am 1.3 -7.2 0.9 97 0.2 WSW 35 44 19 24 - - 0.0
01/10:00am 1.1 -6.9 0.7 97 0.2 W 32 41 17 22 - - 0.0
01/09:30am 1.1 -7.8 0.5 96 0.2 W 37 50 20 27 - - 0.0
01/09:00am 0.6 -7.0 0.3 98 0.1 W 30 39 16 21 - - 2.2
01/08:30am 0.7 -9.6 0.4 98 0.1 WSW 44 59 24 32 - - 2.2
01/08:00am 0.5 -10.6 0.2 98 0.1 WSW 48 59 26 32 - - 2.0
01/07:30am 0.0 -10.4 -0.7 95 0.3 WSW 44 56 24 30 - - 2.0
01/07:00am -0.1 -8.4 -1.4 91 0.5 SW 32 48 17 26 - - 2.0
01/06:48am 0.0 -3.5 -1.1 92 0.4 SW 7 37 4 20 - - 2.0
01/06:30am -0.3 -2.5 -1.3 93 0.4 CALM 0 0 0 0 - - 2.0
01/06:00am -0.8 -3.0 -1.6 94 0.3 CALM 0 0 0 0 - - 2.0
01/05:30am -0.8 -3.0 -1.6 94 0.3 CALM 0 0 0 0 - - 2.0
01/05:00am -0.8 -2.9 -1.1 98 0.1 CALM 0 0 0 0 - - 2.0
01/04:30am -0.3 -2.3 -0.4 99 0.0 CALM 0 0 0 0 - - 2.0
01/04:00am -0.3 -3.7 -0.4 99 0.0 WSW 7 15 4 8 - - 2.0
01/03:30am -0.3 -5.6 -0.4 99 0.0 SW 17 26 9 14 - - 2.0
01/03:00am 0.3 -7.4 0.2 99 0.0 WSW 30 39 16 21 - - 2.0
01/02:30am 0.3 -8.0 0.0 98 0.1 WSW 33 39 18 21 - - 1.8
01/02:00am 0.5 -5.3 0.2 98 0.1 SW 20 30 11 16 - - 1.8
01/01:30am 0.3 -2.4 0.2 99 0.0 WSW 4 4 2 2 - - 1.8
01/01:00am 0.8 -4.9 0.7 99 0.0 WSW 20 30 11 16 - - 1.8
01/12:30am 1.2 -5.6 1.1 99 0.0 WSW 26 32 14 17 - - 1.8
01/12:00am 1.1 -5.3 1.0 99 0.0 WSW 24 28 13 15 - - 1.8
 
Date/Time
EST
Temp
°C
App
Temp
°C
Dew
Point
°C
Rel
Hum
%
Delta-T
°C
Wind Press
QNH
hPa
Press
MSL
hPa
Rain since
9am
mm
Dir  Spd
km/h
Gust
km/h
Spd
kts
Gust
kts
30/11:30pm 1.1 -5.3 0.8 98 0.1 SW 24 30 13 16 - - 1.6
30/11:00pm 1.0 -5.4 0.7 98 0.1 WSW 24 28 13 15 - - 1.6
30/10:30pm 1.4 -5.4 1.0 97 0.2 WSW 26 30 14 16 - - 1.6
30/10:00pm 1.3 -4.7 1.0 98 0.1 WSW 22 26 12 14 - - 1.6
30/09:30pm 1.1 -4.4 0.8 98 0.1 WSW 19 24 10 13 - - 1.6
30/09:00pm 1.6 -3.4 1.5 99 0.0 WSW 17 22 9 12 - - 1.6
30/08:30pm 1.9 -4.4 1.8 99 0.0 SW 24 30 13 16 - - 1.6
30/08:00pm 2.0 -6.0 1.9 99 0.0 WSW 33 39 18 21 - - 1.6
30/07:30pm 1.9 -5.1 1.8 99 0.0 WSW 28 33 15 18 - - 1.6
30/07:00pm 1.8 -5.2 1.7 99 0.0 W 28 35 15 19 - - 1.6
30/06:30pm 2.0 -4.6 1.9 99 0.0 WNW 26 32 14 17 - - 1.4
30/06:00pm 1.9 -5.5 1.8 99 0.0 WNW 30 39 16 21 - - 1.4
30/05:30pm 1.8 -6.2 1.7 99 0.0 NW 33 43 18 23 - - 1.4
30/05:00pm 1.8 -6.6 1.7 99 0.0 NW 35 44 19 24 - - 1.2
30/04:30pm 1.9 -8.0 1.8 99 0.0 NW 43 50 23 27 - - 1.0
30/04:00pm 1.9 -7.6 1.8 99 0.0 NNW 41 50 22 27 - - 0.8
30/03:30pm 2.0 -7.1 1.9 99 0.0 NNW 39 48 21 26 - - 0.4
30/03:00pm 2.2 -8.2 2.1 99 0.0 NNW 46 56 25 30 - - 0.4
30/02:30pm 2.3 -8.1 2.2 99 0.0 NNW 46 59 25 32 - - 0.4
30/02:00pm 2.1 -7.9 2.0 99 0.0 NNW 44 57 24 31 - - 0.4
30/01:30pm 1.9 -8.2 1.8 99 0.0 NNW 44 57 24 31 - - 0.4
30/01:00pm 1.8 -8.7 1.7 99 0.0 N 46 61 25 33 - - 0.2
30/12:30pm 1.6 -9.3 1.5 99 0.0 N 48 63 26 34 - - 0.2
30/12:00pm 1.4 -9.1 1.3 99 0.0 N 46 69 25 37 - - 0.0
30/11:43am 1.4 -9.1 1.3 99 0.0 N 46 65 25 35 - - 0.0
30/11:30am 1.5 -9.8 1.4 99 0.0 N 50 67 27 36 - - 0.0
30/11:11am 1.4 -9.5 1.3 99 0.0 N 48 69 26 37 - - 0.0
30/11:00am 1.4 -9.9 1.3 99 0.0 N 50 63 27 34 - - 0.0
30/10:30am 1.3 -8.7 1.2 99 0.0 N 43 69 23 37 - - 0.0
30/10:00am 1.1 -7.8 0.8 98 0.1 N 37 48 20 26 - - 0.0
30/09:36am 1.1 -8.2 0.8 98 0.1 N 39 63 21 34 - - 0.0
30/09:30am 1.0 -8.3 0.7 98 0.1 N 39 52 21 28 - - 0.0
30/09:00am 0.9 -9.2 0.6 98 0.1 N 43 63 23 34 - - 0.2
30/08:34am 0.8 -9.5 0.5 98 0.1 N 44 67 24 36 - - 0.2
30/08:30am 0.7 -9.6 0.4 98 0.1 N 44 61 24 33 - - 0.2
30/08:00am 0.6 -10.1 0.3 98 0.1 N 46 61 25 33 - - 0.2
30/07:30am 0.5 -9.8 0.1 97 0.2 N 44 67 24 36 - - 0.2
30/07:18am 0.5 -10.2 0.1 97 0.2 N 46 65 25 35 - - 0.2
30/07:00am 0.4 -9.8 0.0 97 0.2 N 43 54 23 29 - - 0.2
30/06:40am 0.5 -10.2 -0.1 96 0.2 N 46 65 25 35 - - 0.2
30/06:30am 0.6 -10.5 0.0 96 0.2 N 48 65 26 35 - - 0.2
30/06:06am 0.5 -9.7 -0.2 95 0.3 N 43 65 23 35 - - 0.2
30/06:00am 0.5 -9.3 -0.4 94 0.4 N 41 56 22 30 - - 0.2
30/05:30am 0.4 -10.8 -0.7 92 0.4 N 48 74 26 40 - - 0.2
30/05:00am 0.6 -11.8 -1.3 87 0.8 N 54 74 29 40 - - 0.2
30/04:44am 0.5 -12.9 -1.4 87 0.8 NNW 59 83 32 45 - - 0.2
30/04:30am 0.8 -14.5 -1.4 85 0.9 NNW 69 95 37 51 - - 0.2
30/04:00am 0.7 -13.0 -1.2 87 0.8 NNW 61 85 33 46 - - 0.2
30/03:30am 0.8 -11.2 -0.8 89 0.6 NNW 52 80 28 43 - - 0.2
30/03:00am 1.2 -12.9 -1.0 85 0.9 NNW 63 93 34 50 - - 0.2
30/02:46am 1.5 -12.9 -0.3 88 0.7 NNW 65 96 35 52 - - 0.2
30/02:30am 1.3 -10.9 0.6 95 0.3 NNW 54 80 29 43 - - 0.2
30/02:14am 1.2 -10.2 0.6 96 0.2 NNW 50 70 27 38 - - 0.2
30/02:00am 1.2 -10.6 0.6 96 0.2 NNW 52 63 28 34 - - 0.2
30/01:30am 1.3 -10.5 0.6 95 0.3 NNW 52 70 28 38 - - 0.2
30/01:07am 1.3 -10.5 0.6 95 0.3 NNW 52 70 28 38 - - 0.2
30/01:00am 1.3 -10.9 0.4 94 0.4 NNW 54 69 29 37 - - 0.2
30/12:48am 1.3 -11.2 0.6 95 0.3 NNW 56 74 30 40 - - 0.2
30/12:30am 1.2 -10.5 0.8 97 0.2 NNW 52 67 28 36 - - 0.2
30/12:01am 1.2 -11.4 0.3 94 0.4 NNW 56 76 30 41 - - 0.2
30/12:00am 1.2 -11.3 0.5 95 0.3 NNW 56 69 30 37 - - 0.2
 
Date/Time
EST
Temp
°C
App
Temp
°C
Dew
Point
°C
Rel
Hum
%
Delta-T
°C
Wind Press
QNH
hPa
Press
MSL
hPa
Rain since
9am
mm
Dir  Spd
km/h
Gust
km/h
Spd
kts
Gust
kts
29/11:40pm 1.2 -11.3 0.6 96 0.2 NNW 56 74 30 40 - - 0.2
29/11:30pm 1.2 -11.3 0.5 95 0.3 N 56 69 30 37 - - 0.2
29/11:00pm 1.3 -10.5 0.1 92 0.5 NNW 52 74 28 40 - - 0.2
29/10:59pm 1.2 -10.6 0.2 93 0.4 NNW 52 74 28 40 - - 0.2
29/10:30pm 1.3 -11.5 0.3 93 0.4 NNW 57 72 31 39 - - 0.2
29/10:00pm 1.2 -11.5 0.5 95 0.3 NW 57 70 31 38 - - 0.2
29/09:30pm 1.5 -10.2 0.9 96 0.2 NNW 52 65 28 35 - - 0.2
29/09:00pm 1.8 -8.3 0.6 92 0.5 NNW 43 54 23 29 - - 0.2
29/08:30pm 2.1 -8.2 0.3 88 0.7 NNW 44 54 24 29 - - 0.2
29/08:00pm 1.9 -8.4 0.4 90 0.6 NNW 44 54 24 29 - - 0.2
29/07:30pm 1.9 -8.1 1.0 94 0.4 NNW 43 52 23 28 - - 0.2
29/07:00pm 1.7 -6.3 1.4 98 0.1 NNW 33 43 18 23 - - 0.2
29/06:30pm 1.7 -6.3 1.6 99 0.0 NW 33 41 18 22 - - 0.2
29/06:00pm 2.1 -5.3 2.0 99 0.0 NW 30 41 16 22 - - 0.2
29/05:30pm 2.0 -5.4 1.9 99 0.0 WNW 30 35 16 19 - - 0.2
29/05:00pm 1.9 -6.8 1.8 99 0.0 NW 37 46 20 25 - - 0.2
29/04:30pm 2.3 -5.4 2.2 99 0.0 NW 32 43 17 23 - - 0.2
29/04:00pm 3.0 -3.1 2.9 99 0.0 NW 24 39 13 21 - - 0.2
29/03:30pm 3.3 -3.1 3.2 99 0.0 WNW 26 33 14 18 - - 0.2
29/03:00pm 3.2 -4.0 3.1 99 0.0 W 30 39 16 21 - - 0.2
29/02:30pm 3.4 -3.7 3.3 99 0.0 W 30 39 16 21 - - 0.2
29/02:00pm 3.5 -4.0 3.4 99 0.0 WNW 32 46 17 25 - - 0.2
29/01:30pm 3.5 -4.6 3.4 99 0.0 WNW 35 44 19 24 - - 0.2
29/01:00pm 3.4 -5.5 3.3 99 0.0 WNW 39 54 21 29 - - 0.2
29/12:30pm 3.9 -4.1 3.8 99 0.0 WNW 35 50 19 27 - - 0.2
29/12:00pm 3.2 -5.7 3.1 99 0.0 WNW 39 52 21 28 - - 0.2
29/11:37am 3.6 -3.9 3.3 98 0.1 WNW 32 50 17 27 - - 0.2
29/11:30am 3.6 -3.5 3.3 98 0.1 WNW 30 39 16 21 - - 0.2
29/11:00am 3.5 -4.0 3.2 98 0.1 W 32 43 17 23 - - 0.2
29/10:30am 3.8 -1.4 3.7 99 0.0 W 20 30 11 16 - - 0.2
29/10:00am 2.9 -2.8 2.8 99 0.0 W 22 30 12 16 - - 0.0
29/09:30am 2.9 -2.8 2.8 99 0.0 W 22 28 12 15 - - 0.0
29/09:00am 2.6 -2.6 2.5 99 0.0 WSW 19 24 10 13 - - 6.4
29/08:30am 2.4 -2.1 2.3 99 0.0 WSW 15 20 8 11 - - 6.4
29/08:00am 2.2 -3.6 2.1 99 0.0 WSW 22 30 12 16 - - 6.4
29/07:30am 2.2 -5.8 1.9 98 0.1 WSW 33 43 18 23 - - 6.4
29/07:00am 2.2 -6.1 1.9 98 0.1 WSW 35 44 19 24 - - 6.4
29/06:30am 2.5 -6.5 2.2 98 0.1 WSW 39 48 21 26 - - 6.4
29/06:00am 2.7 -8.8 2.3 97 0.2 WSW 52 69 28 37 - - 6.4
29/05:30am 2.3 -10.1 1.6 95 0.3 WSW 56 63 30 34 - - 6.4
29/05:00am 2.2 -9.4 1.9 98 0.1 WSW 52 65 28 35 - - 5.8
29/04:50am 2.1 -8.0 1.8 98 0.1 WSW 44 61 24 33 - - 5.6
29/04:30am 2.3 -5.5 2.0 98 0.1 WSW 32 41 17 22 - - 5.2
29/04:00am 2.2 -6.1 1.9 98 0.1 SW 35 44 19 24 - - 4.4
29/03:30am 2.6 -6.8 2.3 98 0.1 WSW 41 72 22 39 - - 3.2
29/03:04am 2.6 -8.5 2.2 97 0.2 W 50 70 27 38 - - 3.2
29/03:00am 2.5 -9.0 2.1 97 0.2 W 52 70 28 38 - - 3.2
29/02:33am 2.7 -10.9 2.0 95 0.3 W 63 83 34 45 - - 3.2
29/02:30am 2.7 -11.3 2.1 96 0.3 W 65 80 35 43 - - 3.2
29/02:00am 2.6 -9.7 2.3 98 0.1 W 56 78 30 42 - - 3.2
29/01:32am 2.5 -10.3 2.2 98 0.1 W 59 87 32 47 - - 3.2
29/01:30am 2.5 -10.3 2.2 98 0.1 W 59 74 32 40 - - 3.2
29/01:02am 2.7 -11.3 2.4 98 0.1 W 65 83 35 45 - - 3.2
29/01:00am 2.7 -11.3 2.4 98 0.1 W 65 82 35 44 - - 3.2
29/12:30am 2.8 -12.1 2.4 97 0.2 W 70 91 38 49 - - 3.2
29/12:00am 2.6 -11.4 2.3 98 0.1 W 65 89 35 48 - - 3.2
 
Date/Time
EST
Temp
°C
App
Temp
°C
Dew
Point
°C
Rel
Hum
%
Delta-T
°C
Wind Press
QNH
hPa
Press
MSL
hPa
Rain since
9am
mm
Dir  Spd
km/h
Gust
km/h
Spd
kts
Gust
kts
28/11:30pm 2.7 -12.0 2.4 98 0.1 W 69 93 37 50 - - 3.2
28/11:00pm 2.6 -12.3 2.2 97 0.2 W 70 95 38 51 - - 3.2
28/10:30pm 2.8 -10.3 2.7 99 0.0 WNW 61 80 33 43 - - 3.2
28/10:00pm 2.7 -9.1 2.6 99 0.0 WNW 54 72 29 39 - - 3.0

Other Formats:

Comma delimited format used in spreadsheet applications
http://www.bom.gov.au/fwo/IDT60801/IDT60801.95979.axf

JavaScript Object Notation format (JSON) in row-major order
http://www.bom.gov.au/fwo/IDT60801/IDT60801.95979.json